Time;durP1;ratioP1;P1;durP2;ratioP2;P2;SDS_P1;SDS_P2;PMS_P1;PMS_P2;Temp;Humidity;BMP_temperature;BMP_pressure;BME280_temperature;BME280_humidity;BME280_pressure;Samples;Min_cycle;Max_cycle;Signal;HPM_P1;HPM_P2
2022/07/29 00:01:43;;;;;;;0.33;0.33;;;19.30;99.90;20.60;101586.00;;;;5049223;28;20195;-64
2022/07/29 00:04:55;;;;;;;0.10;0.10;;;19.20;99.90;20.70;101586.00;;;;5051635;28;20661;-65
2022/07/29 00:08:01;;;;;;;0.10;0.10;;;19.20;99.90;20.00;101581.00;;;;5035963;28;20236;-63
2022/07/29 00:10:46;;;;;;;0.27;0.27;;;19.10;99.90;20.00;101573.00;;;;5035829;28;20189;-63
2022/07/29 00:13:55;;;;;;;0.47;0.47;;;18.90;99.90;20.20;101568.00;;;;5034066;28;20243;-63
2022/07/29 00:16:55;;;;;;;0.10;0.10;;;18.90;99.90;20.10;101573.00;;;;5035207;28;20711;-64
2022/07/29 00:19:23;;;;;;;0.20;0.20;;;19.00;99.90;20.10;101569.00;;;;5034165;28;20278;-64
2022/07/29 00:22:08;;;;;;;0.57;0.30;;;19.00;99.90;20.00;101566.00;;;;5050847;28;20190;-64
2022/07/29 00:24:57;;;;;;;0.10;0.10;;;19.00;99.90;20.10;101570.00;;;;5034484;28;20565;-64
2022/07/29 00:27:43;;;;;;;0.53;0.53;;;18.90;99.90;20.10;101566.00;;;;5034557;28;20667;-66
2022/07/29 00:30:47;;;;;;;0.43;0.30;;;18.90;99.90;20.20;101568.00;;;;5035096;28;20538;-64
2022/07/29 00:33:48;;;;;;;0.10;0.10;;;18.90;99.90;20.30;101572.00;;;;5033942;28;20257;-64
2022/07/29 00:36:49;;;;;;;0.40;0.40;;;19.00;99.90;20.20;101566.00;;;;5017347;28;20218;-64
2022/07/29 00:39:55;;;;;;;0.30;0.30;;;19.00;99.90;19.90;101551.00;;;;5035087;28;20180;-64
2022/07/29 00:43:18;;;;;;;0.20;0.20;;;18.90;99.90;20.00;101548.00;;;;5035046;28;20585;-64
2022/07/29 00:46:21;;;;;;;0.20;0.20;;;18.90;99.90;19.90;101539.00;;;;5033741;28;20278;-65
2022/07/29 00:49:42;;;;;;;0.10;0.10;;;18.80;99.90;20.30;101543.00;;;;5034814;28;20178;-65
2022/07/29 00:53:04;;;;;;;0.10;0.10;;;18.80;99.90;20.40;101557.00;;;;5035119;28;20658;-63
2022/07/29 00:56:05;;;;;;;0.20;0.20;;;18.90;99.90;20.00;101536.00;;;;5022585;28;20275;-65
2022/07/29 00:59:15;;;;;;;0.10;0.10;;;18.90;99.90;19.90;101541.00;;;;5034868;28;20538;-64
2022/07/29 01:02:19;;;;;;;0.10;0.10;;;18.70;99.90;19.70;101537.00;;;;5039700;28;20684;-64
2022/07/29 01:05:28;;;;;;;0.10;0.10;;;18.70;99.90;19.90;101532.00;;;;5054885;28;20178;-63
2022/07/29 01:07:58;;;;;;;0.10;0.10;;;18.70;99.90;19.90;101544.00;;;;5054015;28;20182;-64
2022/07/29 01:10:47;;;;;;;0.10;0.10;;;18.80;99.90;20.20;101552.00;;;;5053734;28;20179;-64
2022/07/29 01:13:25;;;;;;;0.40;0.40;;;18.90;99.90;20.20;101543.00;;;;5053073;28;20224;-64
2022/07/29 01:16:48;;;;;;;0.10;0.10;;;18.90;99.90;20.40;101538.00;;;;5053034;28;20532;-64
2022/07/29 01:19:59;;;;;;;0.10;0.10;;;19.00;99.90;20.10;101527.00;;;;5049828;28;20193;-64
2022/07/29 01:22:47;;;;;;;0.10;0.10;;;18.90;99.90;20.30;101521.00;;;;5053409;28;20604;-64
2022/07/29 01:33:51;;;;;;;0.17;0.17;;;18.60;99.90;19.60;101506.00;;;;5025225;28;20347;-65
2022/07/29 01:37:05;;;;;;;0.43;0.43;;;18.50;99.90;19.50;101502.00;;;;4934655;29;20280;-63
2022/07/29 01:40:19;;;;;;;0.37;0.30;;;18.40;99.90;19.90;101512.00;;;;4902803;29;20238;-63
2022/07/29 01:43:57;;;;;;;0.10;0.10;;;18.40;99.90;20.80;101530.00;;;;4934455;29;20257;-63
2022/07/29 01:47:05;;;;;;;0.10;0.10;;;18.70;99.90;20.70;101532.00;;;;4911808;29;20208;-65
2022/07/29 01:50:12;;;;;;;0.10;0.10;;;19.00;99.90;21.30;101549.00;;;;4934187;29;20190;-64
2022/07/29 01:52:52;;;;;;;0.10;0.10;;;19.20;99.90;21.40;101555.00;;;;4956633;28;20714;-64
2022/07/29 01:55:41;;;;;;;0.30;0.23;;;19.30;99.90;21.00;101553.00;;;;5032445;28;20762;-64
2022/07/29 01:58:45;;;;;;;0.10;0.10;;;19.20;99.90;21.40;101551.00;;;;5033751;28;20167;-64
2022/07/29 02:01:13;;;;;;;0.10;0.10;;;19.30;99.90;20.20;101518.00;;;;5036554;28;20629;-64
2022/07/29 02:03:45;;;;;;;0.20;0.20;;;19.10;99.90;20.00;101522.00;;;;5046815;28;20564;-64
2022/07/29 02:07:18;;;;;;;0.13;0.13;;;18.80;99.90;19.70;101496.00;;;;5033203;28;20182;-64
2022/07/29 02:10:45;;;;;;;0.30;0.30;;;18.60;99.90;19.80;101504.00;;;;5033132;28;20222;-64
2022/07/29 02:14:05;;;;;;;0.23;0.23;;;18.40;99.90;20.00;101510.00;;;;5032148;28;20206;-64
2022/07/29 02:17:26;;;;;;;0.10;0.10;;;18.50;99.90;20.10;101503.00;;;;5015533;28;20232;-64
2022/07/29 02:20:50;;;;;;;0.10;0.10;;;18.50;99.90;20.30;101512.00;;;;5032399;28;20174;-64
2022/07/29 02:23:56;;;;;;;0.20;0.20;;;18.60;99.90;20.70;101529.00;;;;5033366;28;20181;-64
2022/07/29 02:27:18;;;;;;;0.23;0.23;;;18.80;99.90;20.20;101512.00;;;;5031812;28;20213;-64
2022/07/29 02:30:04;;;;;;;0.20;0.20;;;18.90;99.90;19.90;101512.00;;;;5031990;28;20186;-64
2022/07/29 02:33:09;;;;;;;0.40;0.40;;;18.50;99.90;19.70;101500.00;;;;5021928;28;20304;-64
2022/07/29 02:36:28;;;;;;;0.20;0.20;;;18.40;99.90;19.90;101449.00;;;;5052164;28;20180;-64
2022/07/29 02:39:49;;;;;;;0.20;0.20;;;18.40;99.90;19.40;101484.00;;;;5053436;28;20211;-65
2022/07/29 02:42:53;;;;;;;0.10;0.10;;;18.20;99.90;20.40;101499.00;;;;5051613;28;20227;-64
2022/07/29 02:45:54;;;;;;;0.20;0.20;;;18.50;99.90;20.10;101497.00;;;;5051710;28;20171;-64
2022/07/29 02:48:56;;;;;;;0.20;0.20;;;18.70;99.90;20.10;101487.00;;;;5051868;28;20203;-64
2022/07/29 02:52:17;;;;;;;0.30;0.30;;;18.50;99.90;19.90;101499.00;;;;5051861;28;20192;-64
2022/07/29 02:54:58;;;;;;;0.50;0.50;;;18.40;99.90;19.30;101463.00;;;;5051771;28;20189;-64
2022/07/29 02:58:00;;;;;;;0.20;0.20;;;18.10;99.90;18.70;101450.00;;;;5051667;28;20185;-64
2022/07/29 03:00:35;;;;;;;0.37;0.37;;;17.90;99.90;18.70;101443.00;;;;5052872;28;20189;-64
2022/07/29 03:03:49;;;;;;;1.17;0.77;;;17.70;99.90;18.60;101432.00;;;;5052772;28;20185;-65
2022/07/29 03:06:54;;;;;;;0.20;0.20;;;17.70;99.90;18.90;101434.00;;;;5052066;28;20176;-64
2022/07/29 03:09:38;;;;;;;0.70;0.70;;;17.70;99.90;18.80;101445.00;;;;5051837;28;20195;-64
2022/07/29 03:12:42;;;;;;;0.20;0.20;;;17.70;99.90;19.00;101457.00;;;;5052680;28;20330;-64
2022/07/29 03:15:46;;;;;;;0.20;0.20;;;17.80;99.90;19.00;101452.00;;;;5051458;28;20260;-64
2022/07/29 03:19:08;;;;;;;0.20;0.20;;;17.60;99.90;19.20;101464.00;;;;5052443;28;20508;-64
2022/07/29 03:22:35;;;;;;;0.20;0.20;;;17.90;99.90;19.40;101473.00;;;;5056448;28;20226;-64
2022/07/29 03:25:33;;;;;;;0.30;0.30;;;17.90;99.90;19.30;101472.00;;;;5062417;28;20184;-64
2022/07/29 03:28:54;;;;;;;0.30;0.30;;;18.00;99.90;19.00;101466.00;;;;5049413;28;20274;-64
2022/07/29 03:31:55;;;;;;;0.30;0.30;;;17.80;99.90;19.20;101462.00;;;;5054933;28;20619;-64
2022/07/29 03:34:39;;;;;;;0.30;0.30;;;17.80;99.90;19.70;101476.00;;;;5051621;28;20188;-64
2022/07/29 03:37:22;;;;;;;0.30;0.30;;;18.10;99.90;19.40;101463.00;;;;5051915;28;20213;-64
2022/07/29 03:39:51;;;;;;;0.20;0.20;;;18.00;99.90;19.50;101474.00;;;;5036040;28;20205;-65
2022/07/29 03:42:38;;;;;;;0.30;0.30;;;17.90;99.90;19.90;101488.00;;;;5018426;28;20204;-65
2022/07/29 03:45:22;;;;;;;0.30;0.30;;;18.10;99.90;20.20;101453.00;;;;5034995;28;20184;-64
2022/07/29 03:48:40;;;;;;;0.30;0.30;;;18.20;99.90;19.80;101489.00;;;;5035237;28;20194;-64
2022/07/29 03:51:25;;;;;;;0.30;0.30;;;18.30;99.90;20.30;101496.00;;;;5034717;28;20193;-64
2022/07/29 03:54:44;;;;;;;0.30;0.30;;;18.30;99.90;20.30;101492.00;;;;5034612;28;20180;-64
2022/07/29 03:58:10;;;;;;;0.37;0.37;;;18.30;99.90;19.80;101491.00;;;;5036085;28;20171;-64
2022/07/29 04:01:14;;;;;;;0.30;0.30;;;18.20;99.90;19.50;101481.00;;;;5034553;28;20266;-64
2022/07/29 04:04:24;;;;;;;2.30;2.20;;;18.00;99.90;19.40;101438.00;;;;5046165;28;20189;-64
2022/07/29 04:07:14;;;;;;;0.30;0.30;;;17.80;99.90;19.70;101488.00;;;;5038992;28;20192;-64
2022/07/29 04:10:18;;;;;;;0.30;0.30;;;17.90;99.90;19.80;101482.00;;;;5053416;28;20179;-64
2022/07/29 04:13:29;;;;;;;2.00;1.90;;;18.20;99.90;19.80;101492.00;;;;5053943;28;20222;-65
2022/07/29 04:17:00;;;;;;;0.40;0.40;;;18.10;99.90;20.10;101494.00;;;;5054510;28;20190;-65
2022/07/29 04:20:07;;;;;;;0.40;0.40;;;18.20;99.90;20.00;101476.00;;;;5055308;28;20175;-65
2022/07/29 04:23:35;;;;;;;0.40;0.40;;;18.30;99.90;19.90;101497.00;;;;5054984;28;20237;-65
2022/07/29 04:26:58;;;;;;;0.40;0.40;;;18.30;99.90;20.10;101497.00;;;;5054380;28;20203;-64
2022/07/29 04:30:06;;;;;;;0.40;0.40;;;18.30;99.90;19.40;101489.00;;;;5055080;28;20183;-65
2022/07/29 04:33:25;;;;;;;0.40;0.40;;;18.10;99.90;19.90;101481.00;;;;5055035;28;20211;-65
2022/07/29 04:36:46;;;;;;;0.40;0.40;;;18.00;99.90;19.50;101490.00;;;;5055008;28;20618;-64
2022/07/29 04:40:04;;;;;;;0.40;0.40;;;17.90;99.90;19.50;101482.00;;;;5055084;28;20214;-65
2022/07/29 04:43:10;;;;;;;0.30;0.30;;;17.90;99.90;18.90;101435.00;;;;5054875;28;20283;-65
2022/07/29 04:46:30;;;;;;;0.60;0.60;;;17.60;99.90;19.40;101479.00;;;;5054912;28;20268;-65
2022/07/29 04:49:56;;;;;;;0.40;0.40;;;17.70;99.90;19.30;101483.00;;;;5053912;28;20178;-64
2022/07/29 04:53:22;;;;;;;0.40;0.40;;;17.80;99.90;19.60;101490.00;;;;5054371;28;20204;-64
2022/07/29 04:56:44;;;;;;;1.07;1.07;;;18.00;99.90;19.90;101494.00;;;;5054607;28;20923;-64
2022/07/29 05:00:02;;;;;;;0.30;0.30;;;18.10;99.90;19.60;101485.00;;;;5053693;28;20213;-64
2022/07/29 05:03:09;;;;;;;0.40;0.40;;;18.20;99.90;20.50;101506.00;;;;5054675;28;20259;-65
2022/07/29 05:06:27;;;;;;;0.40;0.40;;;18.50;99.90;19.70;101497.00;;;;5033538;28;20184;-65
2022/07/29 05:09:32;;;;;;;0.40;0.40;;;18.60;99.90;20.20;101500.00;;;;5033067;28;20196;-65
2022/07/29 05:12:23;;;;;;;1.40;1.33;;;18.40;99.90;20.30;101495.00;;;;5034437;28;20208;-64
2022/07/29 05:15:36;;;;;;;0.30;0.30;;;18.60;99.90;20.20;101511.00;;;;5016490;28;20185;-64
2022/07/29 05:18:54;;;;;;;0.43;0.43;;;18.70;99.90;21.80;101526.00;;;;5033215;28;20632;-65
2022/07/29 05:22:12;;;;;;;0.20;0.20;;;19.40;99.90;22.80;101550.00;;;;5033958;28;20183;-65
2022/07/29 05:25:15;;;;;;;0.20;0.20;;;20.40;99.90;23.20;101571.00;;;;5034400;28;20185;-64
2022/07/29 05:28:16;;;;;;;0.20;0.20;;;21.10;99.90;23.50;101585.00;;;;5034194;28;20178;-65
2022/07/29 05:31:24;;;;;;;0.10;0.10;;;21.80;99.90;23.50;101589.00;;;;5033909;28;20181;-64
2022/07/29 05:34:43;;;;;;;0.10;0.10;;;21.50;99.90;25.40;101608.00;;;;5037830;28;20583;-64
2022/07/29 05:38:04;;;;;;;0.10;0.10;;;22.60;99.90;25.50;101620.00;;;;5032938;28;20189;-64
2022/07/29 05:41:07;;;;;;;1.45;1.38;;;23.40;99.90;26.60;101608.00;;;;5033427;28;20429;-65
2022/07/29 05:44:28;;;;;;;0.30;0.30;;;24.20;99.90;25.80;101653.00;;;;5033745;28;20214;-65
2022/07/29 05:47:46;;;;;;;0.10;0.10;;;24.00;99.90;26.50;101647.00;;;;5033705;28;20237;-65
2022/07/29 05:50:52;;;;;;;0.10;0.10;;;24.00;99.90;28.10;101661.00;;;;5033495;28;20258;-65
2022/07/29 05:54:25;;;;;;;0.10;0.10;;;25.30;99.90;27.40;101670.00;;;;5032618;28;20222;-65
2022/07/29 05:57:26;;;;;;;0.10;0.10;;;25.40;99.90;25.50;101664.00;;;;5033628;28;20254;-65
2022/07/29 06:00:30;;;;;;;0.10;0.10;;;24.40;99.90;23.60;101639.00;;;;5032560;28;20188;-64
2022/07/29 06:03:48;;;;;;;0.20;0.20;;;23.00;99.90;22.00;101608.00;;;;5032534;28;20179;-65
2022/07/29 06:07:11;;;;;;;0.30;0.30;;;21.70;99.90;20.40;101569.00;;;;5052455;28;20269;-64
2022/07/29 06:10:21;;;;;;;0.20;0.20;;;20.30;99.90;20.20;101520.00;;;;5052223;28;20181;-64
2022/07/29 06:13:42;;;;;;;0.40;0.40;;;19.10;99.90;19.10;101481.00;;;;5048442;28;20216;-64
2022/07/29 06:16:46;;;;;;;0.20;0.20;;;18.70;99.90;21.90;101551.00;;;;5033341;28;20189;-64
2022/07/29 06:20:04;;;;;;;0.10;0.10;;;19.60;99.90;24.70;101618.00;;;;5044392;28;20220;-65
2022/07/29 06:23:13;;;;;;;0.10;0.10;;;21.80;99.90;26.80;101659.00;;;;5053499;28;20669;-65
2022/07/29 06:26:42;;;;;;;0.30;0.30;;;23.70;99.90;28.30;101667.00;;;;5053850;28;20186;-65
2022/07/29 06:29:38;;;;;;;0.10;0.10;;;25.40;99.90;30.10;101671.00;;;;5053448;28;20182;-65
2022/07/29 06:32:33;;;;;;;0.55;0.55;;;27.50;99.90;29.40;101679.00;;;;5051708;28;20205;-65
2022/07/29 06:35:19;;;;;;;0.22;0.22;;;27.40;99.90;30.20;101670.00;;;;5053290;28;20178;-65
2022/07/29 06:37:47;;;;;;;0.10;0.10;;;28.30;99.90;31.00;101659.00;;;;5053532;28;20174;-65
2022/07/29 06:43:15;;;;;;;0.03;0.03;;;28.10;99.90;30.20;101668.00;;;;5052908;28;20283;-65
2022/07/29 06:45:44;;;;;;;0.65;0.65;;;28.20;99.90;30.40;101673.00;;;;5053169;28;20174;-65
2022/07/29 06:48:28;;;;;;;0.10;0.10;;;28.60;99.90;31.00;101672.00;;;;5051660;28;20174;-65
2022/07/29 06:51:12;;;;;;;0.25;0.25;;;28.70;99.90;29.90;101680.00;;;;5051818;28;20264;-65
2022/07/29 06:53:57;;;;;;;0.10;0.10;;;28.40;99.90;32.20;101678.00;;;;5069861;28;20213;-66
2022/07/29 06:56:48;;;;;;;0.10;0.10;;;29.40;99.90;29.30;101681.00;;;;5072475;28;20595;-65
2022/07/29 06:59:37;;;;;;;0.32;0.32;;;28.60;99.90;28.30;101685.00;;;;5072527;28;20182;-65
2022/07/29 07:02:24;;;;;;;0.20;0.20;;;28.30;99.90;29.80;101677.00;;;;5055463;28;20182;-65
2022/07/29 07:05:50;;;;;;;0.10;0.10;;;28.50;99.90;32.80;101672.00;;;;5072222;28;20244;-65
2022/07/29 07:08:16;;;;;;;0.10;0.10;;;29.80;99.90;32.60;101636.00;;;;5055424;28;20645;-66
2022/07/29 07:10:54;;;;;;;0.10;0.10;;;30.70;99.90;30.00;101652.00;;;;5055630;28;20641;-65
2022/07/29 07:13:51;;;;;;;0.10;0.10;;;29.50;99.90;30.80;101668.00;;;;5055394;28;20263;-65
2022/07/29 07:16:20;;;;;;;0.10;0.10;;;28.30;99.90;29.90;101684.00;;;;5038223;28;20182;-65
2022/07/29 07:19:33;;;;;;;0.35;0.35;;;28.70;99.90;32.50;101669.00;;;;5030453;28;20194;-65
2022/07/29 07:22:37;;;;;;;0.22;0.22;;;29.80;99.90;31.20;101674.00;;;;5054673;28;20213;-65
2022/07/29 07:26:11;;;;;;;0.10;0.10;;;29.90;99.90;32.30;101664.00;;;;5045576;28;20277;-65
2022/07/29 07:28:57;;;;;;;0.10;0.10;;;29.90;99.90;32.20;101670.00;;;;5051272;28;20557;-65
2022/07/29 07:31:58;;;;;;;0.10;0.10;;;29.80;99.90;30.80;101680.00;;;;5036207;28;20286;-65
2022/07/29 07:35:03;;;;;;;0.10;0.10;;;29.40;99.90;31.30;101683.00;;;;5056391;28;20189;-65
2022/07/29 07:38:05;;;;;;;8.88;0.50;;;29.20;99.90;30.00;101698.00;;;;5050635;28;20613;-65
2022/07/29 07:41:10;;;;;;;0.10;0.10;;;28.40;99.90;32.80;101681.00;;;;5035037;28;20626;-65
2022/07/29 07:44:30;;;;;;;0.90;0.90;;;29.60;99.90;27.80;101703.00;;;;5039366;28;20252;-66
2022/07/29 07:47:21;;;;;;;3.50;1.17;;;27.90;99.90;30.90;101692.00;;;;5016473;28;20669;-64
2022/07/29 07:50:10;;;;;;;0.10;0.10;;;28.50;99.90;32.60;101686.00;;;;5036747;28;20179;-65
2022/07/29 07:53:11;;;;;;;0.32;0.32;;;29.70;99.90;33.70;101674.00;;;;5035033;28;20252;-66
2022/07/29 07:56:21;;;;;;;0.10;0.10;;;31.10;99.20;32.70;101681.00;;;;5050640;28;20625;-66
2022/07/29 07:59:37;;;;;;;0.20;0.20;;;31.00;98.30;32.70;101675.00;;;;5054833;28;20634;-66
2022/07/29 08:03:08;;;;;;;0.10;0.10;;;31.90;96.60;33.80;101669.00;;;;5054413;28;20750;-66
2022/07/29 08:06:15;;;;;;;0.20;0.20;;;31.60;97.30;31.50;101678.00;;;;5047801;28;20182;-66
2022/07/29 08:09:36;;;;;;;0.10;0.10;;;32.20;95.50;32.40;101664.00;;;;5017754;28;20183;-71
2022/07/29 08:12:44;;;;;;;0.10;0.10;;;30.60;97.00;33.20;101684.00;;;;5034508;28;20546;-72
2022/07/29 08:16:11;;;;;;;0.00;0.00;;;30.90;96.70;33.90;101677.00;;;;5025315;28;20198;-70
2022/07/29 08:18:57;;;;;;;0.10;0.10;;;31.40;96.30;35.10;101677.00;;;;5040534;28;20550;-72
2022/07/29 08:21:52;;;;;;;0.13;0.13;;;32.60;94.80;33.10;101689.00;;;;5070916;28;20645;-69
2022/07/29 08:25:07;;;;;;;0.10;0.10;;;32.00;94.40;33.20;101688.00;;;;5037669;28;20246;-71
2022/07/29 08:28:26;;;;;;;0.00;0.00;;;31.30;95.10;33.80;101680.00;;;;5045979;28;20190;-72
2022/07/29 08:31:27;;;;;;;0.22;0.22;;;32.10;94.50;33.00;101691.00;;;;5053662;28;20186;-69
2022/07/29 08:34:15;;;;;;;0.10;0.10;;;31.70;94.00;33.50;101689.00;;;;5053947;28;20255;-68
2022/07/29 08:37:16;;;;;;;0.00;0.00;;;31.50;94.70;33.00;101702.00;;;;5037435;28;20197;-71
2022/07/29 08:40:24;;;;;;;0.20;0.20;;;31.50;93.20;31.10;101697.00;;;;5053585;28;20185;-69
2022/07/29 08:43:17;;;;;;;0.45;0.10;;;30.00;94.90;30.80;101701.00;;;;5053792;28;20202;-69
2022/07/29 08:46:22;;;;;;;0.10;0.10;;;29.80;95.20;33.50;101691.00;;;;5028533;28;20190;-69
2022/07/29 08:49:25;;;;;;;0.30;0.30;;;30.90;94.80;32.10;101680.00;;;;5017243;28;20251;-82
2022/07/29 08:52:29;;;;;;;0.08;0.08;;;31.30;93.40;33.10;101685.00;;;;5033946;28;20190;-70
2022/07/29 08:55:45;;;;;;;0.10;0.10;;;31.00;93.70;32.10;101703.00;;;;5033363;28;20194;-71
2022/07/29 08:59:06;;;;;;;0.50;0.50;;;31.00;93.00;30.60;101704.00;;;;5033163;28;20183;-69
2022/07/29 09:02:28;;;;;;;0.17;0.17;;;29.90;94.00;32.10;101699.00;;;;5033447;28;20272;-70
2022/07/29 09:05:20;;;;;;;0.03;0.03;;;30.40;94.10;31.30;101688.00;;;;5055974;28;20247;-73
2022/07/29 09:08:46;;;;;;;0.10;0.10;;;30.20;94.00;30.10;101713.00;;;;5053761;28;20210;-72
2022/07/29 09:12:13;;;;;;;0.10;0.10;;;29.90;93.90;29.90;101714.00;;;;5052823;28;20178;-70
2022/07/29 09:15:14;;;;;;;0.25;0.25;;;29.00;95.00;31.90;101697.00;;;;5054585;28;20582;-73
2022/07/29 09:18:09;;;;;;;0.30;0.30;;;29.90;94.70;30.90;101682.00;;;;5052641;28;20237;-72
2022/07/29 09:24:55;;;;;;;0.73;0.20;;;29.50;93.30;29.60;101710.00;;;;5053375;28;20598;-78
2022/07/29 09:28:19;;;;;;;0.10;0.10;;;28.60;94.70;31.90;101703.00;;;;5010593;28;20238;-76
2022/07/29 09:31:02;;;;;;;0.10;0.10;;;29.80;94.60;30.80;101709.00;;;;5011433;28;20321;-73
2022/07/29 09:33:39;;;;;;;0.00;0.00;;;29.50;94.20;30.40;101706.00;;;;4975874;28;20215;-75
2022/07/29 09:36:25;;;;;;;0.10;0.10;;;29.10;94.20;32.60;101700.00;;;;4997408;28;20694;-75
2022/07/29 09:39:47;;;;;;;0.20;0.20;;;30.20;94.00;32.20;101700.00;;;;4976754;28;20271;-72
2022/07/29 09:42:56;;;;;;;0.10;0.10;;;31.10;92.10;31.50;101701.00;;;;4986878;28;20307;-74
2022/07/29 09:46:18;;;;;;;0.20;0.20;;;30.20;92.40;32.50;101696.00;;;;4976230;28;20223;-76
2022/07/29 09:49:15;;;;;;;0.10;0.10;;;30.80;91.90;33.00;101681.00;;;;4976209;28;20647;-76
2022/07/29 09:52:23;;;;;;;0.28;0.28;;;31.00;92.40;32.30;101669.00;;;;4976094;28;20233;-75
2022/07/29 09:55:48;;;;;;;0.40;0.40;;;31.20;91.40;30.70;101684.00;;;;4976015;28;20184;-76
2022/07/29 09:58:24;;;;;;;1.45;1.40;;;30.20;92.50;30.50;101682.00;;;;4982122;28;20212;-76
2022/07/29 10:05:33;;;;;;;;;;;;;;;;;;;;;
2022/07/29 10:09:16;;;;;;;0.55;0.55;;;30.10;92.50;32.70;101702.00;;;;4987922;28;20211;-75
2022/07/29 10:12:18;;;;;;;0.68;0.68;;;30.80;92.30;30.20;101702.00;;;;5016535;28;20210;-79
2022/07/29 10:15:36;;;;;;;0.20;0.20;;;30.60;91.70;30.60;101725.00;;;;5062366;28;20202;-74
2022/07/29 10:18:03;;;;;;;0.10;0.10;;;29.10;93.00;30.30;101712.00;;;;5060725;28;20271;-74
2022/07/29 10:41:54;;;;;;;0.10;0.10;;;28.50;93.70;32.20;101698.00;;;;5093648;28;20570;-75
2022/07/29 10:44:23;;;;;;;0.10;0.10;;;30.00;92.90;34.00;101683.00;;;;5101115;28;20598;-76
2022/07/29 10:46:53;;;;;;;0.30;0.30;;;31.50;91.80;31.90;101698.00;;;;5089616;28;20279;-79
2022/07/29 10:49:58;;;;;;;0.90;0.32;;;31.60;90.60;30.10;101713.00;;;;5107521;28;20515;-68
2022/07/29 10:52:57;;;;;;;0.20;0.20;;;29.70;90.40;30.20;101714.00;;;;5106713;28;20220;-72
2022/07/29 10:55:48;;;;;;;0.50;0.50;;;28.80;90.30;31.10;101696.00;;;;5086854;28;20681;-76
2022/07/29 10:58:23;;;;;;;0.10;0.10;;;29.60;90.50;30.70;101709.00;;;;5087574;28;20648;-74
2022/07/29 11:01:29;;;;;;;0.17;0.17;;;30.00;90.70;31.20;101686.00;;;;5090075;28;20176;-74
2022/07/29 11:04:44;;;;;;;0.38;0.38;;;29.80;90.90;30.80;101703.00;;;;5072369;28;20238;-74
2022/07/29 11:07:37;;;;;;;0.30;0.30;;;29.30;90.80;29.70;101710.00;;;;5108005;28;20184;-74
2022/07/29 11:10:16;;;;;;;0.10;0.10;;;29.00;91.00;31.10;101704.00;;;;5092375;28;20180;-74
2022/07/29 11:14:01;;;;;;;0.10;0.10;;;29.50;90.50;29.90;101701.00;;;;5108606;28;20617;-74
2022/07/29 11:17:04;;;;;;;0.30;0.30;;;29.40;90.40;31.30;101691.00;;;;5088794;28;20640;-74
2022/07/29 11:20:26;;;;;;;0.10;0.10;;;29.60;91.00;34.00;101683.00;;;;5071994;28;20180;-74
2022/07/29 11:23:26;;;;;;;0.10;0.10;;;31.10;90.50;35.20;101656.00;;;;5089803;28;20190;-74
2022/07/29 11:26:24;;;;;;;0.30;0.30;;;32.90;87.50;31.10;101687.00;;;;5091543;28;20187;-74
2022/07/29 11:29:09;;;;;;;0.10;0.10;;;31.70;85.60;29.30;101686.00;;;;5089266;28;20192;-74
2022/07/29 11:31:56;;;;;;;0.13;0.13;;;30.00;86.90;32.80;101686.00;;;;5071192;28;20576;-74
2022/07/29 11:34:32;;;;;;;0.50;0.50;;;30.60;89.50;33.80;101684.00;;;;5071660;28;20623;-74
2022/07/29 11:40:44;;;;;;;0.05;0.05;;;30.80;84.80;32.40;101683.00;;;;5110236;28;20707;-74
2022/07/29 11:48:07;;;;;;;0.22;0.22;;;32.70;85.30;33.50;101686.00;;;;5035908;28;20257;-69
2022/07/29 11:51:09;;;;;;;0.25;0.25;;;32.70;81.40;33.50;101684.00;;;;5016585;28;20198;-71
2022/07/29 11:54:00;;;;;;;0.10;0.10;;;32.80;79.90;29.70;101706.00;;;;4999999;28;20203;-71
2022/07/29 11:57:08;;;;;;;0.10;0.10;;;30.60;82.30;31.20;101698.00;;;;5016332;28;20193;-72
2022/07/29 12:00:30;;;;;;;1.52;0.60;;;29.70;84.70;31.10;101704.00;;;;4987516;28;20203;-71
2022/07/29 12:03:45;;;;;;;0.38;0.35;;;30.20;83.00;29.90;101707.00;;;;5002335;28;20703;-71
2022/07/29 12:18:10;;;;;;;0.20;0.20;;;28.80;86.90;29.70;101703.00;;;;5036583;28;20201;-70
2022/07/29 13:31:54;;;;;;;0.20;0.20;;;26.90;90.40;28.10;101722.00;;;;5113982;28;20210;-73
2022/07/29 14:00:14;;;;;;;0.10;0.10;;;27.70;90.20;29.90;101708.00;;;;5070855;28;20181;-72
2022/07/29 14:27:52;;;;;;;0.10;0.10;;;28.20;87.00;29.70;101692.00;;;;5089832;28;20272;-71
2022/07/29 14:41:50;;;;;;;0.20;0.20;;;27.50;89.70;27.90;101713.00;;;;4990840;28;20227;-70
2022/07/29 15:00:06;;;;;;;0.32;0.32;;;26.80;91.90;29.10;101708.00;;;;5010484;28;20183;-69
2022/07/29 15:02:34;;;;;;;0.10;0.10;;;27.20;91.60;29.30;101709.00;;;;4963002;28;20196;-72
2022/07/29 15:09:10;;;;;;;0.10;0.10;;;27.40;91.00;29.70;101704.00;;;;5011183;28;20728;-68
2022/07/29 15:12:14;;;;;;;0.20;0.20;;;27.70;90.60;29.80;101710.00;;;;4996508;28;20220;-71
2022/07/29 15:18:46;;;;;;;0.30;0.30;;;27.70;90.00;29.30;101708.00;;;;5063293;28;20214;-72
2022/07/29 15:21:19;;;;;;;0.10;0.10;;;27.60;90.60;29.10;101709.00;;;;5068384;28;20195;-72
2022/07/29 15:32:18;;;;;;;2.08;0.57;;;27.30;91.90;28.50;101716.00;;;;5116483;28;20673;-71
2022/07/29 15:42:50;;;;;;;0.32;0.32;;;26.80;92.30;27.90;101712.00;;;;5013902;28;20348;-71
2022/07/29 15:49:15;;;;;;;0.10;0.10;;;26.20;92.30;27.20;101687.00;;;;5039676;28;20233;-72
2022/07/29 15:51:59;;;;;;;0.25;0.25;;;25.80;93.00;27.00;101728.00;;;;5053696;28;20217;-74
2022/07/29 15:55:03;;;;;;;0.20;0.20;;;25.80;93.20;27.60;101696.00;;;;5020135;28;20214;-70
2022/07/29 15:58:17;;;;;;;0.32;0.32;;;25.90;93.40;27.60;101722.00;;;;5036929;28;20649;-69
2022/07/29 16:01:18;;;;;;;0.10;0.10;;;26.00;93.60;27.90;101717.00;;;;5004727;28;20197;-69
2022/07/29 16:04:16;;;;;;;0.10;0.10;;;26.30;93.80;27.70;101700.00;;;;5072386;28;20198;-69
2022/07/29 16:07:37;;;;;;;0.10;0.10;;;26.20;93.70;27.10;101723.00;;;;5080183;28;20694;-70
2022/07/29 16:10:41;;;;;;;0.22;0.22;;;25.90;94.10;27.30;101724.00;;;;5077305;28;20531;-70
2022/07/29 16:13:46;;;;;;;0.20;0.20;;;25.70;94.80;27.20;101731.00;;;;5095597;28;20295;-64
2022/07/29 16:17:12;;;;;;;1.35;0.20;;;25.70;95.10;26.80;101726.00;;;;5095619;28;20635;-69
2022/07/29 16:20:43;;;;;;;0.88;0.88;;;25.60;95.50;26.50;101729.00;;;;5095462;28;20417;-69
2022/07/29 16:23:43;;;;;;;0.38;0.38;;;25.40;95.80;26.20;101707.00;;;;5081316;28;20191;-72
2022/07/29 16:26:45;;;;;;;0.52;0.38;;;25.10;96.40;26.40;101729.00;;;;5071430;28;20213;-73
2022/07/29 16:34:05;;;;;;;4.30;1.00;;;25.10;97.00;26.30;101741.00;;;;4936414;29;20640;-73
2022/07/29 16:37:14;;;;;;;0.10;0.10;;;25.00;97.60;26.50;101743.00;;;;4954475;28;20193;-73
2022/07/29 16:45:10;;;;;;;;;;;;;;;;;;;;;
2022/07/29 16:59:23;;;;;;;0.68;0.68;;;24.70;99.50;25.20;101730.00;;;;4915549;29;20290;-73
2022/07/29 17:02:18;;;;;;;0.68;0.68;;;24.30;99.90;26.00;101713.00;;;;4900137;29;20206;-69
2022/07/29 17:05:05;;;;;;;0.47;0.47;;;24.40;99.90;26.00;101739.00;;;;4988842;28;20271;-74
2022/07/29 17:08:22;;;;;;;0.13;0.13;;;24.50;99.90;25.70;101751.00;;;;4975874;28;20211;-73
2022/07/29 17:10:48;;;;;;;0.30;0.30;;;24.50;99.90;25.70;101757.00;;;;5010538;28;20222;-73
2022/07/29 17:13:33;;;;;;;0.15;0.15;;;24.40;99.90;25.90;101758.00;;;;5033834;28;20222;-73
2022/07/29 17:16:24;;;;;;;0.20;0.20;;;24.40;99.90;26.40;101731.00;;;;5054215;28;20197;-73
2022/07/29 17:18:55;;;;;;;0.10;0.10;;;24.60;99.90;26.40;101760.00;;;;5038196;28;20660;-73
2022/07/29 17:21:59;;;;;;;0.32;0.32;;;24.70;99.90;25.60;101755.00;;;;5054249;28;20197;-73
2022/07/29 17:24:47;;;;;;;0.40;0.40;;;24.40;99.90;26.00;101747.00;;;;5038756;28;20210;-73
2022/07/29 17:31:37;;;;;;;0.22;0.22;;;24.30;99.80;26.50;101752.00;;;;5058252;28;20703;-73
2022/07/29 17:34:59;;;;;;;0.10;0.10;;;24.50;98.90;26.70;101747.00;;;;5038587;28;20286;-73
2022/07/29 17:37:59;;;;;;;0.30;0.30;;;24.70;98.20;26.50;101740.00;;;;5060011;28;20238;-73
2022/07/29 17:41:01;;;;;;;0.10;0.10;;;25.00;97.40;26.00;101746.00;;;;5093684;28;20184;-73
2022/07/29 17:44:04;;;;;;;0.90;0.68;;;24.70;97.70;25.80;101755.00;;;;5075806;28;20182;-73